Time;durP1;ratioP1;P1;durP2;ratioP2;P2;SDS_P1;SDS_P2;PMS_P1;PMS_P2;Temp;Humidity;BMP_temperature;BMP_pressure;BME280_temperature;BME280_humidity;BME280_pressure;Samples;Min_cycle;Max_cycle;Signal;HPM_P1;HPM_P2
2022/10/09 00:01:54;;;;;;;7.13;3.50;;;5.80;99.90;;;;;;6247686;22;20262;-41
2022/10/09 00:04:19;;;;;;;4.57;3.30;;;5.80;99.90;;;;;;6248318;22;20187;-39
2022/10/09 00:06:45;;;;;;;5.53;3.33;;;5.80;99.90;;;;;;6247256;22;20182;-41
2022/10/09 00:09:13;;;;;;;6.53;3.27;;;5.70;99.90;;;;;;6247817;22;20210;-40
2022/10/09 00:11:38;;;;;;;7.90;3.93;;;5.70;99.90;;;;;;6248606;22;20152;-43
2022/10/09 00:14:04;;;;;;;5.53;3.53;;;5.70;99.90;;;;;;6248307;22;20165;-43
2022/10/09 00:16:30;;;;;;;7.03;3.47;;;5.60;99.90;;;;;;6248338;22;20655;-43
2022/10/09 00:18:56;;;;;;;5.40;3.67;;;5.60;99.90;;;;;;6248967;22;20231;-43
2022/10/09 00:21:28;;;;;;;8.47;3.67;;;5.60;99.90;;;;;;6251379;22;20162;-43
2022/10/09 00:23:56;;;;;;;8.10;3.40;;;5.60;99.90;;;;;;6255304;22;20155;-39
2022/10/09 00:26:23;;;;;;;6.80;3.37;;;5.60;99.90;;;;;;6255180;23;20500;-43
2022/10/09 00:28:49;;;;;;;8.93;3.57;;;5.50;99.90;;;;;;6257259;23;20166;-37
2022/10/09 00:31:15;;;;;;;5.83;3.23;;;5.50;99.90;;;;;;6258786;22;20150;-43
2022/10/09 00:33:41;;;;;;;7.67;3.63;;;5.50;99.90;;;;;;6250005;22;20217;-43
2022/10/09 00:36:12;;;;;;;8.40;3.70;;;5.50;99.90;;;;;;6247079;23;20173;-41
2022/10/09 00:38:38;;;;;;;7.47;3.67;;;5.50;99.90;;;;;;6247475;22;20159;-39
2022/10/09 00:41:04;;;;;;;8.50;4.03;;;5.40;99.90;;;;;;6247527;22;20187;-39
2022/10/09 00:43:52;;;;;;;4.83;3.30;;;5.40;99.90;;;;;;6245670;23;20561;-39
2022/10/09 00:46:47;;;;;;;5.40;3.63;;;5.40;99.90;;;;;;6247267;22;20489;-40
2022/10/09 00:49:30;;;;;;;5.77;3.40;;;5.40;99.90;;;;;;6244691;23;20159;-39
2022/10/09 00:51:59;;;;;;;5.37;3.40;;;5.30;99.90;;;;;;6248345;22;20474;-39
2022/10/09 00:54:29;;;;;;;5.03;3.40;;;5.30;99.90;;;;;;6247368;22;20487;-40
2022/10/09 00:56:54;;;;;;;6.60;3.27;;;5.30;99.90;;;;;;6247358;22;20240;-40
2022/10/09 00:59:21;;;;;;;5.63;3.13;;;5.30;99.90;;;;;;6250191;22;20162;-43
2022/10/09 01:01:47;;;;;;;6.30;3.43;;;5.20;99.90;;;;;;6250548;22;20177;-40
2022/10/09 01:04:12;;;;;;;4.97;3.50;;;5.20;99.90;;;;;;6250918;22;20186;-41
2022/10/09 01:07:03;;;;;;;6.10;3.50;;;5.20;99.90;;;;;;6248010;22;20260;-39
2022/10/09 01:09:44;;;;;;;6.00;3.60;;;5.10;99.90;;;;;;6247890;22;20165;-41
2022/10/09 01:12:24;;;;;;;6.53;3.17;;;5.10;99.90;;;;;;6250781;22;20142;-38
2022/10/09 01:14:56;;;;;;;5.07;3.43;;;5.10;99.90;;;;;;6258607;22;20140;-39
2022/10/09 01:17:56;;;;;;;11.07;3.67;;;5.10;99.90;;;;;;6258490;22;20194;-38
2022/10/09 01:21:00;;;;;;;6.53;3.17;;;5.00;99.90;;;;;;6249262;22;20480;-37
2022/10/09 01:23:43;;;;;;;4.90;3.37;;;5.00;99.90;;;;;;6200206;22;20165;-39
2022/10/09 01:26:17;;;;;;;7.50;3.57;;;5.00;99.90;;;;;;6246672;22;20139;-41
2022/10/09 01:28:50;;;;;;;7.40;4.40;;;5.00;99.90;;;;;;6246946;22;20154;-42
2022/10/09 01:31:17;;;;;;;5.23;3.50;;;4.90;99.90;;;;;;6246915;22;20150;-39
2022/10/09 01:33:43;;;;;;;6.90;3.57;;;4.90;99.90;;;;;;6246808;22;20183;-38
2022/10/09 01:36:09;;;;;;;6.50;3.33;;;4.90;99.90;;;;;;6246322;22;20604;-38
2022/10/09 01:38:37;;;;;;;4.83;3.17;;;4.90;99.90;;;;;;6246585;22;20177;-40
2022/10/09 01:41:05;;;;;;;6.97;3.13;;;4.80;99.90;;;;;;6246619;22;20157;-41
2022/10/09 01:43:30;;;;;;;5.77;3.30;;;4.80;99.90;;;;;;6246970;22;20471;-40
2022/10/09 01:46:16;;;;;;;5.07;3.00;;;4.80;99.90;;;;;;6246901;22;20157;-40
2022/10/09 01:49:03;;;;;;;6.67;3.50;;;4.70;99.90;;;;;;6245400;23;20163;-39
2022/10/09 01:51:37;;;;;;;7.87;3.30;;;4.70;99.90;;;;;;6246463;22;20150;-38
2022/10/09 01:54:07;;;;;;;5.67;3.47;;;4.70;99.90;;;;;;6246891;22;20144;-41
2022/10/09 01:56:36;;;;;;;6.50;3.70;;;4.70;99.90;;;;;;6246263;22;20212;-38
2022/10/09 01:59:08;;;;;;;10.77;3.97;;;4.60;99.90;;;;;;6246727;22;20167;-40
2022/10/09 02:01:36;;;;;;;8.10;3.67;;;4.60;99.90;;;;;;6246330;22;20198;-42
2022/10/09 02:04:06;;;;;;;4.77;3.50;;;4.60;99.90;;;;;;6246380;22;20569;-38
2022/10/09 02:06:33;;;;;;;5.87;3.20;;;4.60;99.90;;;;;;6246497;22;20229;-40
2022/10/09 02:09:01;;;;;;;4.77;3.50;;;4.50;99.90;;;;;;6246096;22;20152;-40
2022/10/09 02:11:30;;;;;;;5.27;3.50;;;4.50;99.90;;;;;;6248354;22;20493;-44
2022/10/09 02:13:57;;;;;;;5.70;3.20;;;4.40;99.90;;;;;;6247536;22;20203;-40
2022/10/09 02:16:48;;;;;;;7.63;3.53;;;4.50;99.90;;;;;;6246293;22;20187;-38
2022/10/09 02:19:20;;;;;;;5.20;3.30;;;4.40;99.90;;;;;;6246123;22;20141;-39
2022/10/09 02:21:49;;;;;;;5.27;2.90;;;4.40;99.90;;;;;;6246116;22;20234;-40
2022/10/09 02:24:19;;;;;;;5.07;3.10;;;4.40;99.90;;;;;;6246070;22;20158;-41
2022/10/09 02:26:45;;;;;;;7.60;2.97;;;4.40;99.90;;;;;;6246298;22;20179;-40
2022/10/09 02:29:12;;;;;;;6.80;3.40;;;4.40;99.90;;;;;;6246380;22;20148;-41
2022/10/09 02:31:40;;;;;;;5.40;3.50;;;4.40;99.90;;;;;;6246362;22;20161;-42
2022/10/09 02:34:08;;;;;;;10.00;3.37;;;4.30;99.90;;;;;;6246379;22;20156;-43
2022/10/09 02:36:34;;;;;;;7.57;3.53;;;4.30;99.90;;;;;;6244064;23;20242;-41
2022/10/09 02:39:00;;;;;;;7.53;3.70;;;4.30;99.90;;;;;;6246313;22;20157;-40
2022/10/09 02:41:26;;;;;;;8.07;3.40;;;4.30;99.90;;;;;;6245974;22;20334;-40
2022/10/09 02:43:52;;;;;;;6.07;3.20;;;4.20;99.90;;;;;;6245967;22;20148;-42
2022/10/09 02:46:18;;;;;;;6.10;3.10;;;4.20;99.90;;;;;;6246277;22;20154;-39
2022/10/09 02:48:44;;;;;;;4.97;3.40;;;4.20;99.90;;;;;;6246561;22;20174;-39
2022/10/09 02:51:09;;;;;;;10.40;3.30;;;4.20;99.90;;;;;;6246466;22;20523;-37
2022/10/09 02:53:35;;;;;;;6.50;2.97;;;4.10;99.90;;;;;;6246404;22;20582;-40
2022/10/09 02:56:01;;;;;;;5.10;3.17;;;4.10;99.90;;;;;;6247062;22;20650;-39
2022/10/09 02:58:29;;;;;;;5.70;3.47;;;4.10;99.90;;;;;;6244488;23;20278;-37
2022/10/09 03:00:55;;;;;;;3.77;3.00;;;4.10;99.90;;;;;;6248239;22;20149;-38
2022/10/09 03:03:20;;;;;;;6.77;3.20;;;4.00;99.90;;;;;;6249076;22;20242;-39
2022/10/09 03:05:46;;;;;;;3.30;2.83;;;4.00;99.90;;;;;;6248060;22;20223;-40
2022/10/09 03:08:12;;;;;;;6.73;3.90;;;4.00;99.90;;;;;;6247818;22;20255;-41
2022/10/09 03:10:39;;;;;;;7.53;3.13;;;4.00;99.90;;;;;;6248592;22;20242;-38
2022/10/09 03:13:05;;;;;;;6.03;3.30;;;4.00;99.90;;;;;;6247805;22;20152;-40
2022/10/09 03:15:35;;;;;;;11.47;3.47;;;4.00;99.90;;;;;;6247690;22;20598;-41
2022/10/09 03:18:01;;;;;;;8.13;3.37;;;4.00;99.90;;;;;;6248000;22;20314;-38
2022/10/09 03:20:28;;;;;;;8.37;3.53;;;4.00;99.90;;;;;;6246263;23;20593;-39
2022/10/09 03:22:55;;;;;;;6.00;3.60;;;4.00;99.90;;;;;;6246705;23;20586;-40
2022/10/09 03:25:21;;;;;;;4.47;3.63;;;4.00;99.90;;;;;;6251887;22;20157;-38
2022/10/09 03:27:47;;;;;;;7.17;3.77;;;4.00;99.90;;;;;;6247741;22;20552;-38
2022/10/09 03:30:12;;;;;;;7.43;3.80;;;4.00;99.90;;;;;;6247680;22;20159;-41
2022/10/09 03:32:38;;;;;;;7.70;3.90;;;4.00;99.90;;;;;;6247706;22;20563;-42
2022/10/09 03:35:04;;;;;;;5.10;3.60;;;4.00;99.90;;;;;;6248039;22;20175;-39
2022/10/09 03:37:30;;;;;;;11.40;3.93;;;4.00;99.90;;;;;;6247721;22;20195;-39
2022/10/09 03:39:57;;;;;;;6.83;3.93;;;3.90;99.90;;;;;;6247848;22;20160;-40
2022/10/09 03:42:22;;;;;;;8.60;3.93;;;3.90;99.90;;;;;;6246269;23;20214;-40
2022/10/09 03:44:48;;;;;;;7.77;4.13;;;3.90;99.90;;;;;;6245985;23;20160;-40
2022/10/09 03:47:13;;;;;;;6.27;3.60;;;3.80;99.90;;;;;;6248357;22;20641;-39
2022/10/09 03:49:39;;;;;;;7.27;3.77;;;3.80;99.90;;;;;;6247994;22;20324;-39
2022/10/09 03:52:04;;;;;;;6.37;3.47;;;3.80;99.90;;;;;;6248051;22;20475;-39
2022/10/09 03:54:30;;;;;;;7.80;3.87;;;3.80;99.90;;;;;;6246077;23;20246;-42
2022/10/09 03:56:55;;;;;;;7.33;3.73;;;3.80;99.90;;;;;;6247694;22;20267;-39
2022/10/09 03:59:21;;;;;;;7.07;4.03;;;3.80;99.90;;;;;;6247449;22;20152;-41
2022/10/09 04:01:47;;;;;;;6.23;3.53;;;3.80;99.90;;;;;;6247495;22;20150;-39
2022/10/09 04:04:12;;;;;;;9.47;4.20;;;3.80;99.90;;;;;;6247309;22;20585;-40
2022/10/09 04:06:38;;;;;;;9.20;3.67;;;3.80;99.90;;;;;;6247984;22;20191;-41
2022/10/09 04:09:03;;;;;;;9.50;3.97;;;3.80;99.90;;;;;;6247392;22;20257;-40
2022/10/09 04:11:29;;;;;;;8.13;3.97;;;3.90;99.90;;;;;;6247036;22;20227;-41
2022/10/09 04:13:54;;;;;;;9.20;3.60;;;3.90;99.90;;;;;;6247816;22;20594;-42
2022/10/09 04:16:20;;;;;;;6.87;3.83;;;3.80;99.90;;;;;;6249193;22;20194;-40
2022/10/09 04:18:46;;;;;;;7.07;3.70;;;3.90;99.90;;;;;;6247126;23;20198;-39
2022/10/09 04:21:12;;;;;;;6.47;4.10;;;3.80;99.90;;;;;;6249357;22;20219;-38
2022/10/09 04:23:38;;;;;;;9.60;3.70;;;3.80;99.90;;;;;;6249168;22;20152;-39
2022/10/09 04:26:04;;;;;;;6.53;3.50;;;3.80;99.90;;;;;;6247209;22;20221;-39
2022/10/09 04:28:31;;;;;;;7.37;3.73;;;3.70;99.90;;;;;;6247240;22;20183;-40
2022/10/09 04:30:57;;;;;;;5.90;3.73;;;3.70;99.90;;;;;;6246096;23;20162;-40
2022/10/09 04:33:24;;;;;;;8.77;3.77;;;3.70;99.90;;;;;;6247707;22;20640;-40
2022/10/09 04:35:52;;;;;;;6.77;3.90;;;3.60;99.90;;;;;;6247359;22;20560;-40
2022/10/09 04:38:18;;;;;;;7.93;3.73;;;3.60;99.90;;;;;;6245640;23;20193;-40
2022/10/09 04:40:44;;;;;;;8.13;3.53;;;3.60;99.90;;;;;;6247845;22;20159;-41
2022/10/09 04:43:10;;;;;;;7.07;3.30;;;3.60;99.90;;;;;;6247828;22;20163;-41
2022/10/09 04:45:39;;;;;;;5.27;3.27;;;3.60;99.90;;;;;;6250454;22;20554;-41
2022/10/09 04:48:04;;;;;;;7.77;3.83;;;3.50;99.90;;;;;;6249432;22;20198;-39
2022/10/09 04:50:30;;;;;;;5.47;3.60;;;3.50;99.90;;;;;;6247664;22;20167;-40
2022/10/09 04:52:56;;;;;;;6.33;3.00;;;3.50;99.90;;;;;;6246963;22;20159;-38
2022/10/09 04:55:21;;;;;;;4.87;3.33;;;3.50;99.90;;;;;;6245515;23;20175;-40
2022/10/09 04:57:47;;;;;;;7.03;3.40;;;3.40;99.90;;;;;;6247255;22;20490;-40
2022/10/09 05:00:13;;;;;;;5.73;3.40;;;3.40;99.90;;;;;;6246944;22;20666;-38
2022/10/09 05:02:38;;;;;;;8.77;3.63;;;3.40;99.90;;;;;;6247084;22;20152;-41
2022/10/09 05:05:04;;;;;;;6.13;3.90;;;3.40;99.90;;;;;;6248223;22;20215;-42
2022/10/09 05:07:30;;;;;;;6.67;3.63;;;3.30;99.90;;;;;;6250682;22;20183;-39
2022/10/09 05:09:56;;;;;;;5.40;3.30;;;3.30;99.90;;;;;;6249117;22;20616;-39
2022/10/09 05:12:21;;;;;;;6.23;3.73;;;3.30;99.90;;;;;;6247297;22;20152;-40
2022/10/09 05:14:47;;;;;;;8.03;3.67;;;3.30;99.90;;;;;;6246769;22;20160;-38
2022/10/09 05:17:12;;;;;;;6.93;3.57;;;3.30;99.90;;;;;;6246595;22;20242;-42
2022/10/09 05:19:38;;;;;;;7.17;3.53;;;3.30;99.90;;;;;;6247247;22;20158;-40
2022/10/09 05:22:03;;;;;;;6.60;3.83;;;3.20;99.90;;;;;;6246532;22;20226;-39
2022/10/09 05:24:29;;;;;;;11.63;4.30;;;3.20;99.90;;;;;;6246989;22;20164;-38
2022/10/09 05:26:55;;;;;;;7.53;3.43;;;3.30;99.90;;;;;;6247210;22;20258;-42
2022/10/09 05:29:20;;;;;;;7.67;2.93;;;3.30;99.90;;;;;;6245057;23;20190;-40
2022/10/09 05:31:46;;;;;;;8.10;3.63;;;3.30;99.90;;;;;;6246898;22;20546;-40
2022/10/09 05:34:11;;;;;;;7.57;3.43;;;3.30;99.90;;;;;;6244810;23;20163;-40
2022/10/09 05:36:37;;;;;;;10.30;4.13;;;3.30;99.90;;;;;;6246255;22;20191;-40
2022/10/09 05:39:03;;;;;;;14.40;4.83;;;3.30;99.90;;;;;;6246500;22;20156;-38
2022/10/09 05:41:29;;;;;;;7.53;4.10;;;3.30;99.90;;;;;;6246420;22;20174;-42
2022/10/09 05:43:59;;;;;;;17.30;11.67;;;3.30;99.90;;;;;;6246758;22;20152;-39
2022/10/09 05:46:24;;;;;;;23.10;16.80;;;3.30;99.90;;;;;;6246876;22;20510;-40
2022/10/09 05:48:55;;;;;;;18.67;12.67;;;3.30;99.90;;;;;;6246659;22;20155;-42
2022/10/09 05:51:27;;;;;;;11.13;7.70;;;3.30;99.90;;;;;;6246822;22;20214;-38
2022/10/09 05:53:53;;;;;;;13.63;7.33;;;3.30;99.90;;;;;;6246884;22;20476;-40
2022/10/09 05:56:41;;;;;;;20.57;12.00;;;3.30;99.90;;;;;;6244598;23;20201;-39
2022/10/09 05:59:13;;;;;;;9.63;5.60;;;3.40;99.90;;;;;;6244275;23;20539;-40
2022/10/09 06:01:41;;;;;;;10.23;5.10;;;3.40;99.90;;;;;;6251148;22;20203;-43
2022/10/09 06:04:10;;;;;;;7.93;4.33;;;3.40;99.90;;;;;;6252452;22;20159;-44
2022/10/09 06:06:38;;;;;;;7.43;4.43;;;3.40;99.90;;;;;;6252270;22;20205;-43
2022/10/09 06:09:05;;;;;;;9.67;5.03;;;3.40;99.90;;;;;;6252054;22;20179;-43
2022/10/09 06:11:33;;;;;;;5.60;4.23;;;3.30;99.90;;;;;;6251938;22;20159;-44
2022/10/09 06:14:00;;;;;;;7.80;4.30;;;3.40;99.90;;;;;;6250519;23;20166;-43
2022/10/09 06:16:31;;;;;;;12.63;4.17;;;3.30;99.90;;;;;;6251140;22;20159;-43
2022/10/09 06:18:57;;;;;;;5.50;4.10;;;3.30;99.90;;;;;;6251838;22;20178;-44
2022/10/09 06:21:24;;;;;;;10.03;6.07;;;3.30;99.90;;;;;;6251527;22;20162;-45
2022/10/09 06:23:54;;;;;;;11.17;7.20;;;3.30;99.90;;;;;;6251804;22;20144;-44
2022/10/09 06:26:20;;;;;;;10.30;5.90;;;3.40;99.90;;;;;;6250932;23;20162;-43
2022/10/09 06:28:47;;;;;;;8.57;4.67;;;3.40;99.90;;;;;;6250963;23;20598;-45
2022/10/09 06:31:24;;;;;;;10.67;5.77;;;3.50;99.90;;;;;;6251768;22;20148;-44
2022/10/09 06:33:50;;;;;;;10.70;5.30;;;3.60;99.90;;;;;;6250901;22;20275;-43
2022/10/09 06:36:22;;;;;;;13.10;6.83;;;3.70;99.90;;;;;;6249651;23;20171;-45
2022/10/09 06:38:48;;;;;;;12.20;5.97;;;3.80;99.90;;;;;;6251971;22;20238;-42
2022/10/09 06:41:22;;;;;;;10.47;6.37;;;3.80;99.90;;;;;;6253873;22;20159;-43
2022/10/09 06:43:56;;;;;;;9.10;6.53;;;3.90;99.90;;;;;;6251107;22;20140;-42
2022/10/09 06:46:28;;;;;;;69.47;51.67;;;3.90;99.90;;;;;;6249088;23;20160;-42
2022/10/09 06:48:54;;;;;;;15.97;11.47;;;4.00;99.90;;;;;;6248945;23;20482;-42
2022/10/09 06:51:22;;;;;;;10.10;5.73;;;4.10;99.90;;;;;;6249024;23;20159;-44
2022/10/09 06:53:50;;;;;;;5.80;4.20;;;4.20;99.90;;;;;;6250813;22;20154;-43
2022/10/09 06:56:17;;;;;;;10.90;4.17;;;4.30;99.90;;;;;;6250915;22;20151;-44
2022/10/09 06:58:43;;;;;;;13.70;4.70;;;4.40;99.90;;;;;;6249754;22;20534;-43
2022/10/09 07:01:09;;;;;;;10.87;4.30;;;4.50;99.90;;;;;;6250816;22;20179;-44
2022/10/09 07:03:36;;;;;;;8.83;5.13;;;4.60;99.90;;;;;;6250119;22;20148;-44
2022/10/09 07:06:13;;;;;;;10.60;5.23;;;4.70;99.90;;;;;;6250069;22;20172;-45
2022/10/09 07:08:41;;;;;;;11.63;5.07;;;4.80;99.90;;;;;;6248566;23;20570;-44
2022/10/09 07:11:12;;;;;;;14.97;5.37;;;5.00;99.90;;;;;;6249914;22;20155;-42
2022/10/09 07:13:40;;;;;;;8.50;4.77;;;5.10;99.90;;;;;;6248166;23;20174;-43
2022/10/09 07:16:06;;;;;;;10.70;5.13;;;5.20;99.90;;;;;;6248137;23;20218;-44
2022/10/09 07:18:33;;;;;;;9.43;4.90;;;5.30;99.90;;;;;;6249336;22;20656;-43
2022/10/09 07:21:03;;;;;;;16.70;5.73;;;5.40;99.90;;;;;;6249123;23;20155;-45
2022/10/09 07:23:30;;;;;;;10.20;5.53;;;5.50;99.90;;;;;;6250099;22;20282;-44
2022/10/09 07:25:57;;;;;;;12.57;6.47;;;5.60;99.90;;;;;;6250137;22;20206;-43
2022/10/09 07:28:25;;;;;;;9.80;5.13;;;5.80;99.90;;;;;;6250210;22;20250;-46
2022/10/09 07:30:51;;;;;;;10.73;5.90;;;5.80;99.90;;;;;;6250364;22;20159;-43
2022/10/09 07:33:16;;;;;;;12.73;6.53;;;5.90;99.90;;;;;;6249952;22;20164;-43
2022/10/09 07:43:02;;;;;;;17.07;6.33;;;6.30;99.90;;;;;;6187204;23;20180;-43
2022/10/09 07:45:28;;;;;;;8.63;4.80;;;6.50;99.90;;;;;;6167641;22;20603;-41
2022/10/09 07:47:56;;;;;;;9.63;5.23;;;6.60;99.90;;;;;;6250528;22;20184;-44
2022/10/09 07:50:23;;;;;;;13.23;5.97;;;6.80;99.90;;;;;;6250564;22;20163;-42
2022/10/09 07:52:55;;;;;;;13.33;5.70;;;6.90;99.90;;;;;;6250674;22;20159;-44
2022/10/09 07:55:21;;;;;;;11.60;6.07;;;7.10;99.90;;;;;;6250586;22;20136;-44
2022/10/09 07:58:15;;;;;;;11.17;5.23;;;7.20;99.90;;;;;;6250386;22;20190;-39
2022/10/09 08:00:44;;;;;;;13.53;6.00;;;7.30;99.90;;;;;;6247074;23;20223;-37
2022/10/09 08:03:13;;;;;;;9.30;5.57;;;7.40;99.90;;;;;;6247735;22;20159;-41
2022/10/09 08:06:09;;;;;;;8.00;5.30;;;7.50;99.90;;;;;;6245734;23;20166;-38
2022/10/09 08:08:36;;;;;;;8.47;4.70;;;7.70;99.90;;;;;;6245335;23;20185;-41
2022/10/09 08:11:15;;;;;;;12.77;5.63;;;7.80;99.90;;;;;;6245719;23;20629;-41
2022/10/09 08:13:42;;;;;;;12.13;5.93;;;7.90;99.90;;;;;;6247377;22;20173;-41
2022/10/09 08:16:12;;;;;;;8.10;5.67;;;8.00;99.90;;;;;;6247686;22;20481;-41
2022/10/09 08:18:39;;;;;;;10.03;5.17;;;8.10;99.90;;;;;;6238448;22;20260;-37
2022/10/09 08:21:13;;;;;;;11.73;5.47;;;8.20;99.90;;;;;;6247165;22;20164;-40
2022/10/09 08:23:42;;;;;;;16.30;6.30;;;8.30;99.90;;;;;;6247838;22;20142;-40
2022/10/09 08:26:14;;;;;;;12.30;5.33;;;8.40;99.90;;;;;;6247340;22;20242;-40
2022/10/09 08:28:41;;;;;;;8.07;5.57;;;8.60;99.90;;;;;;6247059;22;20163;-39
2022/10/09 08:31:19;;;;;;;10.63;5.70;;;8.60;99.90;;;;;;6245967;23;20154;-39
2022/10/09 08:33:45;;;;;;;8.07;4.40;;;8.80;99.90;;;;;;6247645;22;20557;-41
2022/10/09 08:36:15;;;;;;;9.80;5.03;;;8.80;99.90;;;;;;6245251;23;20174;-40
2022/10/09 08:38:49;;;;;;;3.20;2.50;;;9.00;99.90;;;;;;6247008;22;20246;-41
2022/10/09 08:41:19;;;;;;;6.40;4.50;;;9.10;99.90;;;;;;6245783;23;20585;-39
2022/10/09 08:43:48;;;;;;;12.17;4.77;;;9.20;99.90;;;;;;6247562;22;20492;-42
2022/10/09 08:46:22;;;;;;;7.77;3.57;;;9.30;99.90;;;;;;6245401;23;20163;-39
2022/10/09 08:48:49;;;;;;;7.23;2.97;;;9.40;99.90;;;;;;6247440;22;20138;-38
2022/10/09 08:51:26;;;;;;;9.00;4.30;;;9.50;99.90;;;;;;6247015;22;20165;-40
2022/10/09 08:54:09;;;;;;;5.87;3.97;;;9.60;99.90;;;;;;6247217;22;20138;-37
2022/10/09 08:56:36;;;;;;;8.30;4.70;;;9.80;99.90;;;;;;6246487;22;20588;-40
2022/10/09 08:59:02;;;;;;;9.77;4.00;;;9.90;99.90;;;;;;6246764;22;20205;-37
2022/10/09 09:01:44;;;;;;;11.53;4.07;;;10.00;99.90;;;;;;6247002;22;20171;-37
2022/10/09 09:04:34;;;;;;;6.70;4.23;;;10.10;99.90;;;;;;6246681;22;20218;-37
2022/10/09 09:07:05;;;;;;;9.73;4.60;;;10.20;99.90;;;;;;6246794;22;20488;-39
2022/10/09 09:09:51;;;;;;;10.07;4.47;;;10.30;99.90;;;;;;6246812;22;20219;-37
2022/10/09 09:12:35;;;;;;;9.50;4.20;;;10.40;99.90;;;;;;6247029;22;20140;-39
2022/10/09 09:15:35;;;;;;;5.73;4.10;;;10.50;99.90;;;;;;6247215;22;20186;-36
2022/10/09 09:18:22;;;;;;;7.70;3.80;;;10.60;99.90;;;;;;6246728;22;20186;-37
2022/10/09 09:20:52;;;;;;;5.00;3.83;;;10.80;99.90;;;;;;6246707;22;20226;-40
2022/10/09 09:23:26;;;;;;;6.50;3.77;;;10.90;99.90;;;;;;6246514;22;20165;-39
2022/10/09 09:25:52;;;;;;;4.00;3.23;;;11.00;99.90;;;;;;6246657;22;20147;-40
2022/10/09 09:28:30;;;;;;;7.67;3.83;;;11.10;99.90;;;;;;6246724;22;20260;-38
2022/10/09 09:31:13;;;;;;;10.97;3.60;;;11.30;99.90;;;;;;6246808;22;20145;-41
2022/10/09 09:33:51;;;;;;;8.83;4.03;;;11.40;99.90;;;;;;6246809;22;20151;-39
2022/10/09 09:36:39;;;;;;;9.40;3.30;;;11.50;99.90;;;;;;6246504;22;20542;-39
2022/10/09 09:39:05;;;;;;;6.67;3.17;;;11.70;99.90;;;;;;6246501;22;20143;-41
2022/10/09 09:41:30;;;;;;;9.73;3.57;;;11.80;99.90;;;;;;6246554;22;20206;-37
2022/10/09 09:43:56;;;;;;;8.13;3.83;;;11.90;99.90;;;;;;6246850;22;20143;-38
2022/10/09 09:46:26;;;;;;;5.17;3.33;;;12.00;99.90;;;;;;6246836;22;20193;-40
2022/10/09 09:48:52;;;;;;;5.43;3.47;;;12.10;99.90;;;;;;6246722;22;20481;-41
2022/10/09 09:51:28;;;;;;;10.10;3.60;;;12.20;99.90;;;;;;6246366;22;20152;-39
2022/10/09 09:54:03;;;;;;;7.47;3.30;;;12.30;99.90;;;;;;6246560;22;20149;-42
2022/10/09 09:56:41;;;;;;;5.57;3.07;;;12.50;99.90;;;;;;6245151;23;20705;-39
2022/10/09 09:59:36;;;;;;;8.27;2.83;;;12.60;99.90;;;;;;6246690;22;20152;-38
2022/10/09 10:02:22;;;;;;;4.60;3.07;;;12.60;99.90;;;;;;6226243;23;20175;-39
2022/10/09 10:04:53;;;;;;;4.77;3.27;;;12.80;99.90;;;;;;6246522;22;20140;-39
2022/10/09 10:07:35;;;;;;;4.27;2.87;;;12.90;99.90;;;;;;6246568;22;20511;-38
2022/10/09 10:10:14;;;;;;;5.67;2.67;;;13.00;99.90;;;;;;6246349;22;20529;-40
2022/10/09 10:12:57;;;;;;;4.80;2.50;;;13.10;99.90;;;;;;6247036;22;20526;-40
2022/10/09 10:15:32;;;;;;;6.27;2.63;;;13.30;99.90;;;;;;6246505;22;20140;-41
2022/10/09 10:18:04;;;;;;;6.47;2.80;;;13.30;99.90;;;;;;6245001;23;20186;-41
2022/10/09 10:20:32;;;;;;;9.13;3.00;;;13.40;99.90;;;;;;6244621;23;20156;-38
2022/10/09 10:23:00;;;;;;;5.13;2.10;;;13.60;99.90;;;;;;6246614;22;20148;-39
2022/10/09 10:25:35;;;;;;;7.23;2.60;;;13.70;99.90;;;;;;6246472;22;20136;-40
2022/10/09 10:28:11;;;;;;;5.73;2.27;;;13.80;99.90;;;;;;6245723;22;20179;-40
2022/10/09 10:30:37;;;;;;;3.47;1.73;;;13.90;99.90;;;;;;6246842;22;20190;-39
2022/10/09 10:33:26;;;;;;;3.80;2.00;;;14.00;99.90;;;;;;6246056;22;20229;-42
2022/10/09 10:35:52;;;;;;;6.00;2.47;;;14.10;99.90;;;;;;6246100;22;20171;-41
2022/10/09 10:38:57;;;;;;;6.77;2.50;;;14.20;99.90;;;;;;6245770;22;20190;-44
2022/10/09 10:41:31;;;;;;;7.83;2.27;;;14.40;99.90;;;;;;6246031;22;20566;-42
2022/10/09 10:43:58;;;;;;;7.23;2.60;;;14.40;99.90;;;;;;6246368;22;20136;-38
2022/10/09 10:46:33;;;;;;;6.10;2.17;;;14.50;99.90;;;;;;6246335;22;20202;-42
2022/10/09 10:48:59;;;;;;;5.57;2.33;;;14.70;99.90;;;;;;6246319;22;20216;-40
2022/10/09 10:52:02;;;;;;;4.60;1.93;;;14.80;99.90;;;;;;6245893;22;20151;-43
2022/10/09 10:54:37;;;;;;;7.20;2.30;;;14.90;99.90;;;;;;6244362;23;20593;-42
2022/10/09 10:57:24;;;;;;;14.50;2.17;;;15.00;99.90;;;;;;6245834;22;20186;-42
2022/10/09 11:00:04;;;;;;;4.60;2.10;;;15.10;99.90;;;;;;6245950;22;20155;-43
2022/10/09 11:03:05;;;;;;;4.73;2.13;;;15.20;99.90;;;;;;6244423;23;20151;-42
2022/10/09 11:05:57;;;;;;;5.27;2.00;;;15.30;99.90;;;;;;6244314;23;20150;-41
2022/10/09 11:08:51;;;;;;;3.83;2.03;;;15.50;99.90;;;;;;6245823;22;20633;-40
2022/10/09 11:11:40;;;;;;;8.70;2.00;;;15.50;99.90;;;;;;6244349;23;20209;-40
2022/10/09 11:14:40;;;;;;;4.27;2.17;;;15.70;99.90;;;;;;6246230;22;20143;-42
2022/10/09 11:17:26;;;;;;;2.30;1.80;;;15.80;99.90;;;;;;6245677;22;20179;-42
2022/10/09 11:20:00;;;;;;;3.63;1.90;;;15.90;99.90;;;;;;6246086;22;20140;-39
2022/10/09 11:22:37;;;;;;;5.27;2.10;;;16.00;99.90;;;;;;6248038;22;20144;-42
2022/10/09 11:25:26;;;;;;;4.23;2.07;;;16.10;99.90;;;;;;6247717;22;20139;-40
2022/10/09 11:27:59;;;;;;;5.37;2.17;;;16.20;99.90;;;;;;6248189;22;20182;-43
2022/10/09 11:30:29;;;;;;;6.43;2.10;;;16.30;99.90;;;;;;6247704;22;20205;-39
2022/10/09 11:33:31;;;;;;;7.17;2.43;;;16.40;99.90;;;;;;6247939;22;20181;-40
2022/10/09 11:36:02;;;;;;;4.20;2.50;;;16.50;99.90;;;;;;6247478;22;20234;-42
2022/10/09 11:38:42;;;;;;;7.23;2.20;;;16.50;99.90;;;;;;6247755;22;20198;-41
2022/10/09 11:41:08;;;;;;;4.53;2.07;;;16.60;99.90;;;;;;6247623;22;20146;-44
2022/10/09 11:44:03;;;;;;;4.60;2.50;;;16.70;99.90;;;;;;6247892;22;20152;-39
2022/10/09 11:47:04;;;;;;;10.10;2.53;;;16.80;99.90;;;;;;6247773;22;20546;-40
2022/10/09 11:50:08;;;;;;;6.77;2.27;;;16.90;99.90;;;;;;6247797;22;20194;-40
2022/10/09 11:53:02;;;;;;;4.63;1.90;;;17.00;99.90;;;;;;6247728;22;20159;-42
2022/10/09 11:55:31;;;;;;;4.60;2.20;;;17.10;99.90;;;;;;6247771;22;20186;-43
2022/10/09 11:58:19;;;;;;;3.63;2.00;;;17.20;99.90;;;;;;6245567;23;20187;-38
2022/10/09 12:00:49;;;;;;;4.77;1.90;;;17.20;99.90;;;;;;6247703;22;20167;-42
2022/10/09 12:03:26;;;;;;;4.17;2.23;;;17.30;99.90;;;;;;6247215;22;20148;-41
2022/10/09 12:06:02;;;;;;;5.07;1.80;;;17.40;99.90;;;;;;6247001;22;20593;-39
2022/10/09 12:08:28;;;;;;;5.23;1.70;;;17.50;99.90;;;;;;6247085;22;20197;-37
2022/10/09 12:11:05;;;;;;;4.73;2.00;;;17.60;99.90;;;;;;6247164;22;20601;-41
2022/10/09 12:13:40;;;;;;;4.07;1.50;;;17.70;99.90;;;;;;6247635;22;20143;-40
2022/10/09 12:16:08;;;;;;;5.00;1.60;;;17.70;99.90;;;;;;6247024;22;20613;-43
2022/10/09 12:18:37;;;;;;;5.07;1.40;;;17.80;99.90;;;;;;6247212;22;20187;-40
2022/10/09 12:21:06;;;;;;;3.87;1.40;;;17.90;99.90;;;;;;6247395;22;20156;-39
2022/10/09 12:23:36;;;;;;;4.90;1.40;;;18.00;99.90;;;;;;6247173;22;20182;-39
2022/10/09 12:26:03;;;;;;;4.43;0.70;;;18.00;99.90;;;;;;6247207;22;20231;-37
2022/10/09 12:28:37;;;;;;;4.90;1.43;;;18.10;99.90;;;;;;6247203;22;20172;-39
2022/10/09 12:31:13;;;;;;;2.87;1.10;;;18.10;99.90;;;;;;6248049;22;20147;-38
2022/10/09 12:33:45;;;;;;;2.77;0.90;;;18.20;99.90;;;;;;6247301;22;20139;-41
2022/10/09 12:36:33;;;;;;;4.90;0.93;;;18.20;99.90;;;;;;6247084;22;20227;-41
2022/10/09 12:39:12;;;;;;;6.83;1.13;;;18.30;99.90;;;;;;6246473;22;20168;-41
2022/10/09 12:41:38;;;;;;;3.00;0.77;;;18.30;99.90;;;;;;6247146;22;20148;-43
2022/10/09 12:44:11;;;;;;;2.10;1.00;;;18.30;99.90;;;;;;6245580;23;20160;-40
2022/10/09 12:46:38;;;;;;;1.03;0.70;;;18.30;99.90;;;;;;6247275;22;20191;-43
2022/10/09 12:49:13;;;;;;;3.67;0.90;;;18.40;99.90;;;;;;6247359;22;20159;-41
2022/10/09 12:51:39;;;;;;;3.50;1.07;;;18.40;99.90;;;;;;6248037;22;20217;-39
2022/10/09 12:54:09;;;;;;;1.73;1.07;;;18.40;99.90;;;;;;6247695;23;20152;-41
2022/10/09 12:56:37;;;;;;;1.87;0.77;;;18.40;99.90;;;;;;6245233;23;20498;-42
2022/10/09 12:59:04;;;;;;;2.57;0.83;;;18.50;99.90;;;;;;6247189;22;20213;-40
2022/10/09 13:01:32;;;;;;;2.67;0.80;;;18.50;99.90;;;;;;6247244;22;20167;-42
2022/10/09 13:03:59;;;;;;;1.37;0.80;;;18.60;99.90;;;;;;6245335;23;20156;-39
2022/10/09 13:06:29;;;;;;;2.97;1.10;;;18.60;99.90;;;;;;6245252;23;20314;-42
2022/10/09 13:09:06;;;;;;;4.13;1.10;;;18.60;99.90;;;;;;6247732;22;20164;-43
2022/10/09 13:11:39;;;;;;;1.80;0.97;;;18.70;99.90;;;;;;6246898;22;20170;-39
2022/10/09 13:14:21;;;;;;;2.57;0.90;;;18.70;99.90;;;;;;6247375;22;20483;-39
2022/10/09 13:16:47;;;;;;;3.27;1.10;;;18.70;99.90;;;;;;6246978;22;20175;-42
2022/10/09 13:19:31;;;;;;;4.07;1.13;;;18.70;99.90;;;;;;6246669;22;20151;-42
2022/10/09 13:22:18;;;;;;;1.70;0.90;;;18.70;99.90;;;;;;6247343;22;20143;-39